createdAt,value
2022-11-17T00:01:25.640Z,1.90
2022-11-17T00:03:52.858Z,2.40
2022-11-17T00:06:23.010Z,2.20
2022-11-17T00:08:52.927Z,2.17
2022-11-17T00:11:19.679Z,2.80
2022-11-17T00:14:05.416Z,1.90
2022-11-17T00:16:32.184Z,2.60
2022-11-17T00:19:17.479Z,2.83
2022-11-17T00:21:44.217Z,2.47
2022-11-17T00:24:11.224Z,3.27
2022-11-17T00:27:00.542Z,3.30
2022-11-17T00:29:28.999Z,3.03
2022-11-17T00:32:14.610Z,2.37
2022-11-17T00:34:41.746Z,2.63
2022-11-17T00:37:09.381Z,3.43
2022-11-17T00:39:36.344Z,2.70
2022-11-17T00:42:03.129Z,3.30
2022-11-17T00:44:30.694Z,2.80
2022-11-17T00:46:57.907Z,2.93
2022-11-17T00:49:27.755Z,3.00
2022-11-17T00:51:55.714Z,3.33
2022-11-17T00:54:23.318Z,3.55
2022-11-17T00:56:50.122Z,3.30
2022-11-17T00:59:17.193Z,2.90
2022-11-17T01:01:44.284Z,3.53
2022-11-17T01:04:13.641Z,3.00
2022-11-17T01:06:42.933Z,3.55
2022-11-17T01:09:16.106Z,3.50
2022-11-17T01:11:43.611Z,4.30
2022-11-17T01:14:20.458Z,3.70
2022-11-17T01:16:47.615Z,3.37
2022-11-17T01:19:15.590Z,4.30
2022-11-17T01:21:42.752Z,4.17
2022-11-17T01:24:11.613Z,4.03
2022-11-17T01:26:39.875Z,4.70
2022-11-17T01:29:08.428Z,3.88
2022-11-17T01:31:38.895Z,4.72
2022-11-17T01:34:06.946Z,4.93
2022-11-17T01:36:55.236Z,4.13
2022-11-17T01:39:26.641Z,4.55
2022-11-17T01:41:54.261Z,4.40
2022-11-17T01:44:44.616Z,4.27
2022-11-17T01:47:20.804Z,3.50
2022-11-17T01:49:51.725Z,3.20
2022-11-17T01:52:18.602Z,3.30
2022-11-17T01:54:48.129Z,3.00
2022-11-17T01:57:22.270Z,3.30
2022-11-17T02:00:01.936Z,3.53
2022-11-17T02:02:28.965Z,3.23
2022-11-17T02:05:06.282Z,2.83
2022-11-17T02:07:39.167Z,2.63
2022-11-17T02:10:07.142Z,2.20
2022-11-17T02:12:36.194Z,2.30
2022-11-17T02:15:04.512Z,2.37
2022-11-17T02:17:44.321Z,1.70
2022-11-17T02:20:34.009Z,2.53
2022-11-17T02:23:29.838Z,2.50
2022-11-17T02:26:11.434Z,1.53
2022-11-17T02:28:44.688Z,2.33
2022-11-17T02:31:20.484Z,2.37
2022-11-17T02:34:08.473Z,2.50
2022-11-17T02:36:50.738Z,1.65
2022-11-17T02:39:31.610Z,2.00
2022-11-17T02:42:03.997Z,2.00
2022-11-17T02:44:42.045Z,1.60
2022-11-17T02:47:15.200Z,2.05
2022-11-17T02:49:49.523Z,2.20
2022-11-17T02:52:19.054Z,1.63
2022-11-17T02:54:46.022Z,1.57
2022-11-17T02:57:28.109Z,2.20
2022-11-17T02:59:55.429Z,1.87
2022-11-17T03:02:49.972Z,1.90
2022-11-17T03:05:58.657Z,1.97
2022-11-17T03:08:47.333Z,2.10
2022-11-17T03:11:14.359Z,2.20
2022-11-17T03:14:01.917Z,2.17
2022-11-17T03:16:41.018Z,2.20
2022-11-17T03:19:15.933Z,2.67
2022-11-17T03:21:53.602Z,2.37
2022-11-17T03:24:29.941Z,1.90
2022-11-17T03:27:11.993Z,2.40
2022-11-17T03:29:43.166Z,1.97
2022-11-17T03:32:11.901Z,2.20
2022-11-17T03:34:44.535Z,1.92
2022-11-17T03:37:13.966Z,2.03
2022-11-17T03:39:50.428Z,1.80
2022-11-17T03:42:24.321Z,1.90
2022-11-17T03:44:56.030Z,1.83
2022-11-17T03:47:25.970Z,1.77
2022-11-17T03:50:22.185Z,1.50
2022-11-17T03:52:49.391Z,1.50
2022-11-17T03:55:16.687Z,1.40
2022-11-17T03:57:52.491Z,2.07
2022-11-17T04:00:20.588Z,1.70
2022-11-17T04:02:49.282Z,1.80
2022-11-17T04:05:17.920Z,2.03
2022-11-17T04:07:46.765Z,1.45
2022-11-17T04:13:01.102Z,1.57
2022-11-17T04:15:56.347Z,1.50
2022-11-17T04:18:23.770Z,1.33
2022-11-17T04:20:55.977Z,1.70
2022-11-17T04:23:23.939Z,1.77
2022-11-17T04:26:11.984Z,1.98
2022-11-17T04:28:45.447Z,1.97
2022-11-17T04:31:13.842Z,2.00
2022-11-17T04:33:46.038Z,2.10
2022-11-17T04:36:15.342Z,1.87
2022-11-17T04:38:47.359Z,1.33
2022-11-17T04:41:34.862Z,2.10
2022-11-17T04:44:02.737Z,1.83
2022-11-17T04:46:33.291Z,2.22
2022-11-17T04:49:01.998Z,1.70
2022-11-17T04:51:29.711Z,1.92
2022-11-17T04:53:57.153Z,2.20
2022-11-17T04:56:25.336Z,1.97
2022-11-17T04:58:52.300Z,2.33
2022-11-17T05:01:20.996Z,1.80
2022-11-17T05:03:47.697Z,2.17
2022-11-17T05:06:20.503Z,2.57
2022-11-17T05:08:47.811Z,2.90
2022-11-17T05:11:35.506Z,2.40
2022-11-17T05:14:03.328Z,2.60
2022-11-17T05:16:48.750Z,2.00
2022-11-17T05:19:19.768Z,2.73
2022-11-17T05:21:46.979Z,2.30
2022-11-17T05:24:16.589Z,2.30
2022-11-17T05:26:45.740Z,2.20
2022-11-17T05:29:15.221Z,2.17
2022-11-17T05:31:42.516Z,2.30
2022-11-17T05:34:12.483Z,2.40
2022-11-17T05:36:41.065Z,2.20
2022-11-17T05:39:08.716Z,2.90
2022-11-17T05:41:37.234Z,2.70
2022-11-17T05:44:05.142Z,2.55
2022-11-17T05:46:32.222Z,2.33
2022-11-17T05:48:59.009Z,3.20
2022-11-17T05:51:26.415Z,2.33
2022-11-17T05:53:53.171Z,2.77
2022-11-17T05:56:30.309Z,2.00
2022-11-17T05:59:10.007Z,2.23
2022-11-17T06:01:42.297Z,2.50
2022-11-17T06:04:10.359Z,2.13
2022-11-17T06:06:38.182Z,2.05
2022-11-17T06:09:05.629Z,2.80
2022-11-17T06:11:32.742Z,2.50
2022-11-17T06:13:59.489Z,3.37
2022-11-17T06:16:29.695Z,5.57
2022-11-17T06:19:06.009Z,4.50
2022-11-17T06:22:04.413Z,3.87
2022-11-17T06:24:22.141Z,3.60
2022-11-17T06:26:49.277Z,4.63
2022-11-17T06:29:16.552Z,4.23
2022-11-17T06:31:44.983Z,4.10
2022-11-17T06:34:12.955Z,2.03
2022-11-17T06:36:40.064Z,3.78
2022-11-17T06:39:06.816Z,3.30
2022-11-17T06:41:33.841Z,3.87
2022-11-17T06:44:00.673Z,3.10
2022-11-17T06:46:37.941Z,3.37
2022-11-17T06:49:08.369Z,2.80
2022-11-17T06:51:37.981Z,3.87
2022-11-17T06:54:09.751Z,3.53
2022-11-17T06:56:36.962Z,3.73
2022-11-17T06:59:03.904Z,4.23
2022-11-17T07:01:31.008Z,4.00
2022-11-17T07:03:57.842Z,4.13
2022-11-17T07:06:24.977Z,4.40
2022-11-17T07:08:51.771Z,4.73
2022-11-17T07:11:18.868Z,3.70
2022-11-17T07:13:45.911Z,3.47
2022-11-17T07:16:23.610Z,4.63
2022-11-17T07:18:52.827Z,4.17
2022-11-17T07:21:20.008Z,5.15
2022-11-17T07:23:47.210Z,4.60
2022-11-17T07:26:14.534Z,3.50
2022-11-17T07:28:41.463Z,3.83
2022-11-17T07:31:09.822Z,3.77
2022-11-17T07:33:36.947Z,2.63
2022-11-17T07:36:09.867Z,4.17
2022-11-17T07:38:38.956Z,3.53
2022-11-17T07:41:07.993Z,4.03
2022-11-17T07:43:36.137Z,6.65
2022-11-17T07:46:05.155Z,8.13
2022-11-17T07:48:33.041Z,8.95
2022-11-17T07:51:01.119Z,3.65
2022-11-17T07:53:28.204Z,3.67
2022-11-17T07:55:56.048Z,4.50
2022-11-17T07:58:25.463Z,3.47
2022-11-17T08:00:52.739Z,4.20
2022-11-17T08:03:19.671Z,3.70
2022-11-17T08:05:46.827Z,3.97
2022-11-17T08:08:14.222Z,4.70
2022-11-17T08:10:43.104Z,4.67
2022-11-17T08:13:09.920Z,4.60
2022-11-17T08:15:37.002Z,4.80
2022-11-17T08:18:03.932Z,4.47
2022-11-17T08:20:31.185Z,4.17
2022-11-17T08:22:58.020Z,4.17
2022-11-17T08:25:26.768Z,3.53
2022-11-17T08:27:58.241Z,5.07
2022-11-17T08:30:26.434Z,6.20
2022-11-17T08:32:54.608Z,9.40
2022-11-17T08:35:24.413Z,5.68
2022-11-17T08:37:52.407Z,7.27
2022-11-17T08:40:20.362Z,5.70
2022-11-17T08:42:53.838Z,4.83
2022-11-17T08:45:23.377Z,5.47
2022-11-17T08:47:50.283Z,6.10
2022-11-17T08:50:18.266Z,5.43
2022-11-17T08:52:45.139Z,4.80
2022-11-17T08:55:12.499Z,5.13
2022-11-17T08:57:39.620Z,5.07
2022-11-17T09:00:07.915Z,5.80
2022-11-17T09:02:34.741Z,4.27
2022-11-17T09:05:01.807Z,4.23
2022-11-17T09:07:34.522Z,5.10
2022-11-17T09:10:02.352Z,4.57
2022-11-17T09:12:29.206Z,3.63
2022-11-17T09:14:56.324Z,4.43
2022-11-17T09:17:23.057Z,5.63
2022-11-17T09:19:52.645Z,3.80
2022-11-17T09:22:19.936Z,7.73
2022-11-17T09:24:47.011Z,6.03
2022-11-17T09:27:13.974Z,4.67
2022-11-17T09:29:41.091Z,3.60
2022-11-17T09:32:07.824Z,4.37
2022-11-17T09:34:34.968Z,5.87
2022-11-17T09:37:01.783Z,5.20
2022-11-17T09:39:29.077Z,5.70
2022-11-17T09:41:57.632Z,5.97
2022-11-17T09:44:34.489Z,4.95
2022-11-17T09:47:26.231Z,6.53
2022-11-17T09:49:58.322Z,4.97
2022-11-17T09:52:31.133Z,6.23
2022-11-17T09:54:59.986Z,5.33
2022-11-17T09:57:42.120Z,5.32
2022-11-17T10:00:18.656Z,7.97
2022-11-17T10:02:46.575Z,7.00
2022-11-17T10:05:28.275Z,6.67
2022-11-17T10:07:58.009Z,6.17
2022-11-17T10:10:33.995Z,9.73
2022-11-17T10:13:05.044Z,7.37
2022-11-17T10:15:45.984Z,10.07
2022-11-17T10:18:15.671Z,7.93
2022-11-17T10:20:44.879Z,9.17
2022-11-17T10:23:18.377Z,8.20
2022-11-17T10:25:47.950Z,7.10
2022-11-17T10:31:04.265Z,6.83
2022-11-17T10:33:39.738Z,5.70
2022-11-17T10:36:15.322Z,7.43
2022-11-17T10:38:54.924Z,6.57
2022-11-17T10:41:42.213Z,8.40
2022-11-17T10:44:24.195Z,11.60
2022-11-17T10:47:02.696Z,9.27
2022-11-17T10:49:34.015Z,8.20
2022-11-17T10:52:16.190Z,6.23
2022-11-17T10:54:43.829Z,6.97
2022-11-17T10:57:20.192Z,6.37
2022-11-17T10:59:56.846Z,8.40
2022-11-17T11:02:33.445Z,8.70
2022-11-17T11:05:10.350Z,10.57
2022-11-17T11:07:38.326Z,8.13
2022-11-17T11:10:43.669Z,7.67
2022-11-17T11:13:52.222Z,7.23
2022-11-17T11:16:19.076Z,7.63
2022-11-17T11:18:48.125Z,6.50
2022-11-17T11:21:32.001Z,8.30
2022-11-17T11:24:17.867Z,6.70
2022-11-17T11:26:51.067Z,6.60
2022-11-17T11:29:45.476Z,6.30
2022-11-17T11:32:18.014Z,5.43
2022-11-17T11:35:07.163Z,6.53
2022-11-17T11:37:43.875Z,5.40
2022-11-17T11:40:11.187Z,5.80
2022-11-17T11:42:59.041Z,6.03
2022-11-17T11:45:44.507Z,6.25
2022-11-17T11:48:16.581Z,5.97
2022-11-17T11:50:52.429Z,6.50
2022-11-17T11:53:32.439Z,6.90
2022-11-17T11:56:12.195Z,6.73
2022-11-17T11:58:47.118Z,6.77
2022-11-17T12:01:17.212Z,8.20
2022-11-17T12:03:54.718Z,6.80
2022-11-17T12:06:42.066Z,7.67
2022-11-17T12:09:14.929Z,8.10
2022-11-17T12:12:01.521Z,8.77
2022-11-17T12:14:28.239Z,8.03
2022-11-17T12:17:17.351Z,7.50
2022-11-17T12:20:07.597Z,8.13
2022-11-17T12:22:37.661Z,7.83
2022-11-17T12:25:29.151Z,8.53
2022-11-17T12:27:56.708Z,5.67
2022-11-17T12:30:37.686Z,8.27
2022-11-17T12:33:06.838Z,10.30
2022-11-17T12:35:39.114Z,8.52
2022-11-17T12:38:18.869Z,7.40
2022-11-17T12:40:54.056Z,8.30
2022-11-17T12:43:21.130Z,6.80
2022-11-17T12:46:12.428Z,8.13
2022-11-17T12:48:45.273Z,7.60
2022-11-17T12:51:34.428Z,7.57
2022-11-17T12:54:27.155Z,8.93
2022-11-17T12:57:02.703Z,10.83
2022-11-17T13:00:07.447Z,10.10
2022-11-17T13:02:58.943Z,10.50
2022-11-17T13:05:30.289Z,9.93
2022-11-17T13:08:24.031Z,9.33
2022-11-17T13:10:51.305Z,9.93
2022-11-17T13:13:21.188Z,10.20
2022-11-17T13:15:58.728Z,8.17
2022-11-17T13:18:38.138Z,13.53
2022-11-17T13:21:16.919Z,13.77
2022-11-17T13:23:45.210Z,8.63
2022-11-17T13:26:31.510Z,7.93
2022-11-17T13:29:11.334Z,8.93
2022-11-17T13:31:38.890Z,9.13
2022-11-17T13:34:13.877Z,7.90
2022-11-17T13:36:57.708Z,9.37
2022-11-17T13:39:27.680Z,6.37
2022-11-17T13:41:57.881Z,8.03
2022-11-17T13:44:27.508Z,8.53
2022-11-17T13:46:55.374Z,7.73
2022-11-17T13:49:38.568Z,9.87
2022-11-17T13:52:13.283Z,8.63
2022-11-17T13:54:45.011Z,9.10
2022-11-17T13:57:26.946Z,7.70
2022-11-17T13:59:54.991Z,10.27
2022-11-17T14:02:24.783Z,7.72
2022-11-17T14:05:09.474Z,9.30
2022-11-17T14:07:39.075Z,9.67
2022-11-17T14:10:20.790Z,13.13
2022-11-17T14:13:00.649Z,12.90
2022-11-17T14:15:30.228Z,11.67
2022-11-17T14:17:59.856Z,14.80
2022-11-17T14:20:34.942Z,14.40
2022-11-17T14:23:08.675Z,10.43
2022-11-17T14:25:40.323Z,8.87
2022-11-17T14:28:19.752Z,10.27
2022-11-17T14:30:51.810Z,10.57
2022-11-17T14:33:19.390Z,10.37
2022-11-17T14:35:50.535Z,11.70
2022-11-17T14:38:19.335Z,11.00
2022-11-17T14:40:46.666Z,10.57
2022-11-17T14:43:13.751Z,11.07
2022-11-17T14:45:40.515Z,11.60
2022-11-17T14:48:07.597Z,12.20
2022-11-17T14:50:34.569Z,13.53
2022-11-17T14:53:01.672Z,11.33
2022-11-17T14:55:28.476Z,12.63
2022-11-17T14:57:55.645Z,11.17
2022-11-17T15:00:22.572Z,9.93
2022-11-17T15:02:49.790Z,9.40
2022-11-17T15:05:17.301Z,11.10
2022-11-17T15:07:44.594Z,12.80
2022-11-17T15:10:12.091Z,16.13
2022-11-17T15:12:39.245Z,16.33
2022-11-17T15:15:06.661Z,15.43
2022-11-17T15:17:33.724Z,16.00
2022-11-17T15:20:00.540Z,16.57
2022-11-17T15:22:27.668Z,14.53
2022-11-17T15:24:54.486Z,18.77
2022-11-17T15:27:21.579Z,13.93
2022-11-17T15:29:48.392Z,20.83
2022-11-17T15:32:15.447Z,25.60
2022-11-17T15:34:42.233Z,21.77
2022-11-17T15:37:09.966Z,19.37
2022-11-17T15:39:36.776Z,17.27
2022-11-17T15:42:03.922Z,18.17
2022-11-17T15:44:30.705Z,20.67
2022-11-17T15:46:57.855Z,14.33
2022-11-17T15:49:24.564Z,18.83
2022-11-17T15:51:51.650Z,18.30
2022-11-17T15:54:20.655Z,15.67
2022-11-17T15:56:48.644Z,15.27
2022-11-17T15:59:15.846Z,14.77
2022-11-17T16:01:43.995Z,12.77
2022-11-17T16:04:13.182Z,14.93
2022-11-17T16:06:42.145Z,12.73
2022-11-17T16:09:10.132Z,13.93
2022-11-17T16:11:37.641Z,17.08
2022-11-17T16:14:05.332Z,16.03
2022-11-17T16:16:35.793Z,16.03
2022-11-17T16:19:02.836Z,16.93
2022-11-17T16:21:29.918Z,14.97
2022-11-17T16:23:57.903Z,14.67
2022-11-17T16:26:26.846Z,13.80
2022-11-17T16:29:02.260Z,13.27
2022-11-17T16:31:32.290Z,14.77
2022-11-17T16:34:10.643Z,13.80
2022-11-17T16:36:39.690Z,14.82
2022-11-17T16:39:11.940Z,14.40
2022-11-17T16:41:40.807Z,14.93
2022-11-17T16:44:16.286Z,16.20
2022-11-17T16:46:46.049Z,16.10
2022-11-17T16:49:15.231Z,16.47
2022-11-17T16:51:50.598Z,17.37
2022-11-17T16:54:18.200Z,16.00
2022-11-17T16:56:45.542Z,15.10
2022-11-17T16:59:12.602Z,17.50
2022-11-17T17:01:39.743Z,11.87
2022-11-17T17:04:08.531Z,10.53
2022-11-17T17:09:06.622Z,9.25
2022-11-17T17:11:35.754Z,10.33
2022-11-17T17:14:06.191Z,9.60
2022-11-17T17:16:35.757Z,12.50
2022-11-17T17:19:05.266Z,15.43
2022-11-17T17:21:33.428Z,14.27
2022-11-17T17:24:00.473Z,14.03
2022-11-17T17:26:29.941Z,14.63
2022-11-17T17:31:29.311Z,11.98
2022-11-17T17:33:56.141Z,13.07
2022-11-17T17:36:24.910Z,12.57
2022-11-17T17:38:56.071Z,13.07
2022-11-17T17:41:26.635Z,11.53
2022-11-17T17:44:04.374Z,11.17
2022-11-17T17:46:34.869Z,11.23
2022-11-17T17:49:01.747Z,7.50
2022-11-17T17:51:29.740Z,8.57
2022-11-17T17:54:00.901Z,8.83
2022-11-17T17:56:30.488Z,8.33
2022-11-17T17:58:58.962Z,10.27
2022-11-17T18:01:28.405Z,9.13
2022-11-17T18:06:28.333Z,8.60
2022-11-17T18:08:55.114Z,10.57
2022-11-17T18:11:22.423Z,13.93
2022-11-17T18:13:51.333Z,12.60
2022-11-17T18:16:22.346Z,10.97
2022-11-17T18:18:49.931Z,14.77
2022-11-17T18:21:19.340Z,14.30
2022-11-17T18:26:18.067Z,13.90
2022-11-17T18:28:58.078Z,16.80
2022-11-17T18:31:27.998Z,10.23
2022-11-17T18:33:56.635Z,11.70
2022-11-17T18:36:23.982Z,9.07
2022-11-17T18:38:52.114Z,7.90
2022-11-17T18:41:20.804Z,8.25
2022-11-17T18:43:48.288Z,8.77
2022-11-17T18:46:20.170Z,7.00
2022-11-17T18:48:49.477Z,11.23
2022-11-17T18:51:20.437Z,9.27
2022-11-17T18:53:49.024Z,9.83
2022-11-17T18:56:21.494Z,8.85
2022-11-17T18:58:48.921Z,13.67
2022-11-17T19:01:22.021Z,17.47
2022-11-17T19:03:51.252Z,26.53
2022-11-17T19:06:19.953Z,15.23
2022-11-17T19:08:48.345Z,15.82
2022-11-17T19:11:17.458Z,15.52
2022-11-17T19:13:45.279Z,15.35
2022-11-17T19:16:16.546Z,21.20
2022-11-17T19:18:45.571Z,11.07
2022-11-17T19:21:15.514Z,11.37
2022-11-17T19:23:50.782Z,10.17
2022-11-17T19:26:23.909Z,11.13
2022-11-17T19:28:54.238Z,14.23
2022-11-17T19:31:21.453Z,13.07
2022-11-17T19:33:50.236Z,10.67
2022-11-17T19:38:45.614Z,11.43
2022-11-17T19:41:21.200Z,10.73
2022-11-17T19:43:48.391Z,9.07
2022-11-17T19:46:17.435Z,11.57
2022-11-17T19:48:44.576Z,12.63
2022-11-17T19:51:32.735Z,11.90
2022-11-17T19:54:04.591Z,13.10
2022-11-17T19:56:31.750Z,11.80
2022-11-17T19:58:58.691Z,10.90
2022-11-17T20:01:27.957Z,12.70
2022-11-17T20:06:27.308Z,16.98
2022-11-17T20:08:55.999Z,17.47
2022-11-17T20:11:26.217Z,13.05
2022-11-17T20:13:54.042Z,12.57
2022-11-17T20:16:26.214Z,15.30
2022-11-17T20:18:55.747Z,13.67
2022-11-17T20:21:23.949Z,13.60
2022-11-17T20:23:51.272Z,11.47
2022-11-17T20:26:21.798Z,11.93
2022-11-17T20:28:49.039Z,12.97
2022-11-17T20:31:19.513Z,12.83
2022-11-17T20:33:47.792Z,14.40
2022-11-17T20:36:17.342Z,12.90
2022-11-17T20:38:44.478Z,13.97
2022-11-17T20:41:11.729Z,14.83
2022-11-17T20:43:38.593Z,13.43
2022-11-17T20:46:05.879Z,12.47
2022-11-17T20:48:35.499Z,12.13
2022-11-17T20:51:05.770Z,11.63
2022-11-17T20:53:33.763Z,13.37
2022-11-17T20:56:02.517Z,11.63
2022-11-17T20:58:30.455Z,10.63
2022-11-17T21:00:57.915Z,10.88
2022-11-17T21:03:26.822Z,11.80
2022-11-17T21:08:29.190Z,9.97
2022-11-17T21:11:04.678Z,11.13
2022-11-17T21:13:33.586Z,11.53
2022-11-17T21:16:09.617Z,10.80
2022-11-17T21:18:38.227Z,11.30
2022-11-17T21:21:09.192Z,10.15
2022-11-17T21:23:37.769Z,10.63
2022-11-17T21:26:06.944Z,11.20
2022-11-17T21:28:34.723Z,10.43
2022-11-17T21:31:07.613Z,10.87
2022-11-17T21:33:35.697Z,10.00
2022-11-17T21:36:05.356Z,9.75
2022-11-17T21:38:32.528Z,9.77
2022-11-17T21:41:07.071Z,9.80
2022-11-17T21:43:36.636Z,9.87
2022-11-17T21:46:06.853Z,10.10
2022-11-17T21:48:35.032Z,9.17
2022-11-17T21:51:03.012Z,8.57
2022-11-17T21:53:30.118Z,8.93
2022-11-17T21:56:01.702Z,9.00
2022-11-17T21:58:28.709Z,8.67
2022-11-17T22:00:56.141Z,8.87
2022-11-17T22:03:23.970Z,9.47
2022-11-17T22:05:52.399Z,9.67
2022-11-17T22:08:19.726Z,9.48
2022-11-17T22:10:46.794Z,9.10
2022-11-17T22:13:13.568Z,9.03
2022-11-17T22:15:40.614Z,8.33
2022-11-17T22:18:07.533Z,9.30
2022-11-17T22:20:34.619Z,8.57
2022-11-17T22:23:01.343Z,8.63
2022-11-17T22:25:44.744Z,8.63
2022-11-17T22:28:12.307Z,8.60
2022-11-17T22:30:39.497Z,8.20
2022-11-17T22:33:06.310Z,8.90
2022-11-17T22:35:33.363Z,8.73
2022-11-17T22:38:00.458Z,8.70
2022-11-17T22:40:27.694Z,9.03
2022-11-17T22:42:54.455Z,9.90
2022-11-17T22:45:21.584Z,10.77
2022-11-17T22:47:48.394Z,8.73
2022-11-17T22:50:15.747Z,9.60
2022-11-17T22:52:42.487Z,8.37
2022-11-17T22:55:09.540Z,9.60
2022-11-17T22:57:36.308Z,10.20
2022-11-17T23:00:05.699Z,8.70
2022-11-17T23:04:59.415Z,8.00
2022-11-17T23:07:26.216Z,8.77
2022-11-17T23:09:53.284Z,8.97
2022-11-17T23:12:20.051Z,8.53
2022-11-17T23:14:47.147Z,9.30
2022-11-17T23:17:14.503Z,8.10
2022-11-17T23:19:41.559Z,8.67
2022-11-17T23:22:08.407Z,8.43
2022-11-17T23:24:35.476Z,8.37
2022-11-17T23:27:02.224Z,8.47
2022-11-17T23:29:29.372Z,8.43
2022-11-17T23:31:56.207Z,8.33
2022-11-17T23:34:23.342Z,9.20
2022-11-17T23:36:50.107Z,8.50
2022-11-17T23:39:17.260Z,7.60
2022-11-17T23:41:44.224Z,8.17
2022-11-17T23:44:11.254Z,8.50
2022-11-17T23:46:38.095Z,8.53
2022-11-17T23:49:05.207Z,7.93
2022-11-17T23:51:32.044Z,7.60
2022-11-17T23:54:00.675Z,7.97
2022-11-17T23:56:27.663Z,8.02
2022-11-17T23:58:54.800Z,8.20
